Time;durP1;ratioP1;P1;durP2;ratioP2;P2;SDS_P1;SDS_P2;PMS_P1;PMS_P2;Temp;Humidity;BMP_temperature;BMP_pressure;BME280_temperature;BME280_humidity;BME280_pressure;Samples;Min_cycle;Max_cycle;Signal;HPM_P1;HPM_P2
2021/04/25 00:00:49;;;;;;;9.30;5.77;;;11.00;55.90;;;;;;5048183;28;20463;-46
2021/04/25 00:03:15;;;;;;;11.70;7.07;;;11.00;55.90;;;;;;5055865;28;20470;-46
2021/04/25 00:05:41;;;;;;;12.00;6.47;;;11.00;55.90;;;;;;5049341;28;20493;-46
2021/04/25 00:08:08;;;;;;;15.53;6.63;;;10.90;55.70;;;;;;5057440;28;20851;-46
2021/04/25 00:10:34;;;;;;;8.13;5.40;;;10.90;55.60;;;;;;5057261;28;20523;-46
2021/04/25 00:13:00;;;;;;;13.67;6.73;;;10.90;55.30;;;;;;5051944;28;20462;-47
2021/04/25 00:15:27;;;;;;;8.90;5.67;;;10.90;55.30;;;;;;5054515;28;20842;-47
2021/04/25 00:17:53;;;;;;;10.73;6.20;;;10.80;55.30;;;;;;5048846;28;20461;-47
2021/04/25 00:20:21;;;;;;;9.40;6.10;;;10.80;55.40;;;;;;5053132;28;20454;-46
2021/04/25 00:22:48;;;;;;;6.60;5.47;;;10.80;55.40;;;;;;5048468;28;20498;-47
2021/04/25 00:25:16;;;;;;;12.00;6.50;;;10.80;55.60;;;;;;5052336;28;20485;-46
2021/04/25 00:27:43;;;;;;;10.47;5.83;;;10.70;55.70;;;;;;5053862;28;20451;-46
2021/04/25 00:30:14;;;;;;;8.20;5.10;;;10.70;55.60;;;;;;5053137;28;20468;-46
2021/04/25 00:32:40;;;;;;;10.80;5.40;;;10.70;55.80;;;;;;5054261;28;20462;-46
2021/04/25 00:35:08;;;;;;;7.37;5.40;;;10.60;55.90;;;;;;5049635;28;20518;-46
2021/04/25 00:37:34;;;;;;;11.23;6.00;;;10.60;56.10;;;;;;5054907;28;20544;-46
2021/04/25 00:40:00;;;;;;;9.00;5.60;;;10.60;55.90;;;;;;5050878;28;20549;-46
2021/04/25 00:42:28;;;;;;;10.00;5.87;;;10.50;56.10;;;;;;5032111;28;20458;-46
2021/04/25 00:44:55;;;;;;;13.23;7.63;;;10.50;56.10;;;;;;5047367;28;20498;-46
2021/04/25 00:47:21;;;;;;;10.70;5.20;;;10.50;56.10;;;;;;5050132;28;20435;-46
2021/04/25 00:49:47;;;;;;;9.27;5.80;;;10.50;56.20;;;;;;5048671;28;20461;-46
2021/04/25 00:52:14;;;;;;;8.17;5.30;;;10.40;56.50;;;;;;5050430;28;20459;-46
2021/04/25 00:54:41;;;;;;;9.53;5.57;;;10.40;56.80;;;;;;5052515;28;20533;-46
2021/04/25 00:57:13;;;;;;;8.00;5.63;;;10.40;57.00;;;;;;5049971;28;20459;-46
2021/04/25 00:59:40;;;;;;;11.10;5.83;;;10.40;57.00;;;;;;5050565;28;20479;-46
2021/04/25 01:02:06;;;;;;;10.03;6.10;;;10.30;56.80;;;;;;5053135;28;20964;-47
2021/04/25 01:04:33;;;;;;;10.80;5.63;;;10.20;56.80;;;;;;5049355;28;20486;-46
2021/04/25 01:07:03;;;;;;;14.63;5.93;;;10.20;57.10;;;;;;5052496;28;20822;-46
2021/04/25 01:09:30;;;;;;;10.60;5.60;;;10.20;57.40;;;;;;5053940;28;20462;-46
2021/04/25 01:11:57;;;;;;;11.00;6.30;;;10.10;57.70;;;;;;5053803;28;21058;-46
2021/04/25 01:14:24;;;;;;;11.07;5.93;;;10.00;57.80;;;;;;5045557;28;20458;-46
2021/04/25 01:16:52;;;;;;;9.07;5.70;;;10.00;58.00;;;;;;5044343;28;20489;-46
2021/04/25 01:19:18;;;;;;;8.50;5.97;;;9.90;58.10;;;;;;5054440;28;20482;-46
2021/04/25 01:21:45;;;;;;;9.37;5.63;;;9.90;58.20;;;;;;5053290;28;20458;-46
2021/04/25 01:24:11;;;;;;;8.00;6.00;;;9.80;58.50;;;;;;5054763;28;20505;-46
2021/04/25 01:26:37;;;;;;;9.77;5.90;;;9.80;58.70;;;;;;5060815;28;20958;-46
2021/04/25 01:29:04;;;;;;;9.83;6.83;;;9.70;59.20;;;;;;5050708;28;20966;-46
2021/04/25 01:31:30;;;;;;;9.40;6.60;;;9.70;59.50;;;;;;5049025;28;20474;-47
2021/04/25 01:33:57;;;;;;;16.73;6.63;;;9.70;59.60;;;;;;5050398;28;20462;-46
2021/04/25 01:36:26;;;;;;;9.20;5.90;;;9.60;59.70;;;;;;5053822;28;20473;-47
2021/04/25 01:38:52;;;;;;;12.30;6.30;;;9.50;59.90;;;;;;5054396;28;20466;-46
2021/04/25 01:41:18;;;;;;;9.07;5.87;;;9.40;60.00;;;;;;5052278;28;20501;-46
2021/04/25 01:43:47;;;;;;;9.90;6.60;;;9.40;60.20;;;;;;5044912;28;20837;-46
2021/04/25 01:46:16;;;;;;;10.93;6.90;;;9.30;60.30;;;;;;5063264;28;20663;-46
2021/04/25 01:48:43;;;;;;;7.50;5.97;;;9.30;60.50;;;;;;5049898;28;21145;-46
2021/04/25 01:51:11;;;;;;;13.30;6.23;;;9.30;60.60;;;;;;5055589;28;20458;-46
2021/04/25 01:53:37;;;;;;;10.17;5.47;;;9.30;60.70;;;;;;5047612;28;20455;-46
2021/04/25 01:56:04;;;;;;;8.87;5.87;;;9.30;60.60;;;;;;5050764;28;20489;-46
2021/04/25 01:58:30;;;;;;;14.73;7.43;;;9.20;60.60;;;;;;5046127;28;20839;-46
2021/04/25 02:00:57;;;;;;;10.80;6.00;;;9.20;60.70;;;;;;5047861;28;20532;-46
2021/04/25 02:03:25;;;;;;;9.80;5.63;;;9.10;60.80;;;;;;5047166;28;20457;-46
2021/04/25 02:05:51;;;;;;;9.40;6.73;;;9.20;60.60;;;;;;5043966;28;20705;-46
2021/04/25 02:08:18;;;;;;;8.70;5.50;;;9.10;60.70;;;;;;5052372;28;20459;-46
2021/04/25 02:10:46;;;;;;;10.47;6.67;;;9.10;60.80;;;;;;5050099;28;20459;-46
2021/04/25 02:13:13;;;;;;;9.57;5.73;;;9.10;60.60;;;;;;5049485;28;20455;-46
2021/04/25 02:15:39;;;;;;;9.73;6.20;;;9.10;60.60;;;;;;5051680;28;20483;-46
2021/04/25 02:18:06;;;;;;;8.17;5.73;;;9.10;60.40;;;;;;5051080;28;20546;-46
2021/04/25 02:20:33;;;;;;;11.47;5.97;;;9.10;60.40;;;;;;5058724;28;20454;-46
2021/04/25 02:22:59;;;;;;;9.50;6.57;;;9.10;60.40;;;;;;5050626;28;20458;-46
2021/04/25 02:25:26;;;;;;;11.43;6.50;;;9.10;60.50;;;;;;5051632;28;20477;-46
2021/04/25 02:27:53;;;;;;;13.60;6.63;;;9.10;60.40;;;;;;5048050;28;20577;-46
2021/04/25 02:30:25;;;;;;;11.50;6.37;;;9.00;60.40;;;;;;5046130;28;21019;-47
2021/04/25 02:32:52;;;;;;;14.97;6.17;;;9.00;60.70;;;;;;5053197;28;20472;-48
2021/04/25 02:35:21;;;;;;;7.43;5.70;;;9.00;60.80;;;;;;5055907;28;20550;-48
2021/04/25 02:37:48;;;;;;;8.23;5.67;;;9.00;60.90;;;;;;5042598;28;20459;-48
2021/04/25 02:40:17;;;;;;;15.40;6.20;;;8.90;60.90;;;;;;5030238;28;20467;-48
2021/04/25 02:42:44;;;;;;;10.70;6.93;;;9.00;60.90;;;;;;5047270;28;20538;-48
2021/04/25 02:45:15;;;;;;;8.00;6.33;;;8.90;61.00;;;;;;5053680;28;20504;-48
2021/04/25 02:47:56;;;;;;;8.03;6.37;;;8.90;60.90;;;;;;5054822;28;20457;-45
2021/04/25 02:50:26;;;;;;;9.47;5.93;;;8.90;60.80;;;;;;5049553;28;20757;-45
2021/04/25 02:52:53;;;;;;;7.40;6.17;;;8.80;60.90;;;;;;5054649;28;20457;-45
2021/04/25 02:55:19;;;;;;;11.07;5.50;;;8.80;60.90;;;;;;5040512;28;20979;-45
2021/04/25 02:57:45;;;;;;;6.80;5.27;;;8.80;60.90;;;;;;5046361;28;20461;-45
2021/04/25 03:00:16;;;;;;;10.13;6.23;;;8.80;60.90;;;;;;5047653;28;20477;-45
2021/04/25 03:02:43;;;;;;;7.13;5.13;;;8.90;60.70;;;;;;5055870;28;20978;-45
2021/04/25 03:05:10;;;;;;;9.63;5.53;;;8.80;60.60;;;;;;5046893;28;20513;-45
2021/04/25 03:07:36;;;;;;;8.80;6.20;;;8.80;60.40;;;;;;5048138;28;20450;-45
2021/04/25 03:10:04;;;;;;;8.50;5.80;;;8.80;60.30;;;;;;5049958;28;20958;-45
2021/04/25 03:12:31;;;;;;;12.33;6.00;;;8.80;60.30;;;;;;5049086;28;20945;-45
2021/04/25 03:14:57;;;;;;;9.07;6.23;;;8.80;60.20;;;;;;5047318;28;20463;-45
2021/04/25 03:17:24;;;;;;;7.47;5.40;;;8.80;60.00;;;;;;5050899;28;20475;-45
2021/04/25 03:19:50;;;;;;;18.63;6.00;;;8.80;59.70;;;;;;5051013;28;20484;-45
2021/04/25 03:22:17;;;;;;;9.30;5.30;;;8.70;59.90;;;;;;5057910;28;20943;-45
2021/04/25 03:24:43;;;;;;;9.87;5.63;;;8.70;60.10;;;;;;5053935;28;20488;-45
2021/04/25 03:27:09;;;;;;;5.50;4.33;;;8.80;60.20;;;;;;5049416;28;20482;-45
2021/04/25 03:29:35;;;;;;;6.60;4.83;;;8.70;60.10;;;;;;5046106;28;20958;-45
2021/04/25 03:32:02;;;;;;;7.20;5.13;;;8.70;59.90;;;;;;5041305;28;20455;-45
2021/04/25 03:34:28;;;;;;;8.63;5.67;;;8.70;59.90;;;;;;5047572;28;20468;-45
2021/04/25 03:36:55;;;;;;;8.43;5.80;;;;;;;;;;5048969;28;20826;-45
2021/04/25 03:39:21;;;;;;;10.17;5.70;;;8.70;59.80;;;;;;5054511;28;20442;-45
2021/04/25 03:41:48;;;;;;;6.37;5.00;;;8.70;59.70;;;;;;5048007;28;20451;-45
2021/04/25 03:44:14;;;;;;;8.83;5.07;;;8.70;59.70;;;;;;5053204;28;20450;-45
2021/04/25 03:46:43;;;;;;;11.57;5.40;;;8.70;59.40;;;;;;5051425;28;20489;-45
2021/04/25 03:49:10;;;;;;;8.10;5.77;;;8.70;59.40;;;;;;5045968;28;20453;-45
2021/04/25 03:51:37;;;;;;;8.87;4.53;;;8.70;59.10;;;;;;5046924;28;20815;-45
2021/04/25 03:54:03;;;;;;;15.27;5.80;;;8.60;59.30;;;;;;5047960;28;20446;-45
2021/04/25 03:56:30;;;;;;;6.93;5.23;;;8.60;59.40;;;;;;5053216;28;20462;-45
2021/04/25 03:58:56;;;;;;;11.50;5.57;;;8.60;59.50;;;;;;5041551;28;20486;-45
2021/04/25 04:01:22;;;;;;;8.77;5.10;;;8.60;59.70;;;;;;5045742;28;20476;-45
2021/04/25 04:03:51;;;;;;;10.87;5.50;;;8.60;59.80;;;;;;5050939;28;20470;-45
2021/04/25 04:06:18;;;;;;;9.13;5.27;;;8.50;59.80;;;;;;5047122;28;20493;-45
2021/04/25 04:08:44;;;;;;;9.57;4.93;;;8.50;60.10;;;;;;5045038;28;20969;-45
2021/04/25 04:11:10;;;;;;;12.17;5.33;;;8.50;60.00;;;;;;5048531;28;20449;-45
2021/04/25 04:13:36;;;;;;;7.60;4.60;;;8.40;60.10;;;;;;5050858;28;20462;-45
2021/04/25 04:16:04;;;;;;;6.10;4.27;;;8.40;60.10;;;;;;5053173;28;20486;-45
2021/04/25 04:18:30;;;;;;;6.87;4.73;;;8.30;60.20;;;;;;5049824;28;20467;-45
2021/04/25 04:20:56;;;;;;;7.97;4.77;;;8.30;60.20;;;;;;5054483;28;20510;-45
2021/04/25 04:23:23;;;;;;;11.10;4.60;;;8.30;60.20;;;;;;5050603;28;20958;-45
2021/04/25 04:25:49;;;;;;;6.57;4.37;;;8.30;60.40;;;;;;5057542;28;20481;-45
2021/04/25 04:28:15;;;;;;;7.10;4.10;;;8.30;60.20;;;;;;5054214;28;20477;-45
2021/04/25 04:30:42;;;;;;;7.57;4.07;;;8.20;60.30;;;;;;5052169;28;20461;-45
2021/04/25 04:33:08;;;;;;;5.20;4.63;;;8.20;60.30;;;;;;5051109;28;20460;-45
2021/04/25 04:35:34;;;;;;;8.87;4.40;;;8.20;60.10;;;;;;5052201;28;20980;-47
2021/04/25 04:38:01;;;;;;;5.73;4.30;;;8.20;60.20;;;;;;5050016;28;21018;-47
2021/04/25 04:40:27;;;;;;;7.57;4.37;;;8.20;60.30;;;;;;5047529;28;20489;-46
2021/04/25 04:42:53;;;;;;;6.90;4.27;;;8.10;60.30;;;;;;5050498;28;20461;-47
2021/04/25 04:45:20;;;;;;;8.77;5.97;;;8.10;60.40;;;;;;5052494;28;20493;-47
2021/04/25 04:47:47;;;;;;;8.53;5.00;;;8.10;60.60;;;;;;5054156;28;20455;-46
2021/04/25 04:50:16;;;;;;;9.97;4.63;;;8.10;60.70;;;;;;5052821;28;20473;-47
2021/04/25 04:52:44;;;;;;;9.83;5.60;;;8.10;60.70;;;;;;5053887;28;20807;-46
2021/04/25 04:55:11;;;;;;;15.37;6.07;;;8.10;60.80;;;;;;5050751;28;20553;-47
2021/04/25 04:57:37;;;;;;;9.70;6.57;;;8.10;61.30;;;;;;5045542;28;20477;-46
2021/04/25 05:00:05;;;;;;;15.50;5.57;;;8.00;61.20;;;;;;5048763;28;20497;-47
2021/04/25 05:02:32;;;;;;;8.47;5.77;;;8.00;61.50;;;;;;5048224;28;20479;-47
2021/04/25 05:04:59;;;;;;;9.60;6.30;;;8.00;61.50;;;;;;5045065;28;20563;-47
2021/04/25 05:07:25;;;;;;;13.60;8.90;;;8.00;61.60;;;;;;5043862;28;20500;-46
2021/04/25 05:09:51;;;;;;;16.80;8.17;;;8.00;62.00;;;;;;5047948;28;20477;-47
2021/04/25 05:12:18;;;;;;;14.30;8.07;;;7.90;62.20;;;;;;5047535;28;20490;-46
2021/04/25 05:14:44;;;;;;;11.13;5.53;;;7.90;62.30;;;;;;5047789;28;20466;-47
2021/04/25 05:17:10;;;;;;;5.17;4.30;;;8.00;62.40;;;;;;5051244;28;20834;-47
2021/04/25 05:19:37;;;;;;;15.40;6.60;;;7.90;62.20;;;;;;5047699;28;20456;-47
2021/04/25 05:22:03;;;;;;;6.60;4.93;;;8.00;61.90;;;;;;5046344;28;20464;-46
2021/04/25 05:24:29;;;;;;;10.37;5.70;;;8.00;61.60;;;;;;5048650;28;20549;-47
2021/04/25 05:26:56;;;;;;;7.80;5.73;;;8.00;61.60;;;;;;5052277;28;20522;-47
2021/04/25 05:29:23;;;;;;;9.53;5.60;;;7.90;61.90;;;;;;5049825;28;20517;-47
2021/04/25 05:31:49;;;;;;;6.10;5.00;;;7.90;62.20;;;;;;5050623;28;21120;-46
2021/04/25 05:34:16;;;;;;;12.50;6.53;;;8.00;62.60;;;;;;5048843;28;20455;-47
2021/04/25 05:36:42;;;;;;;8.23;5.07;;;8.10;62.50;;;;;;5047278;28;20454;-47
2021/04/25 05:39:08;;;;;;;6.20;4.03;;;8.10;62.30;;;;;;5049773;28;20462;-47
2021/04/25 05:41:34;;;;;;;7.43;5.00;;;8.20;61.50;;;;;;5046085;28;20469;-47
2021/04/25 05:44:01;;;;;;;8.20;4.90;;;8.20;61.50;;;;;;5045524;28;20481;-47
2021/04/25 05:46:28;;;;;;;8.30;5.60;;;8.20;61.60;;;;;;5046681;28;20521;-47
2021/04/25 05:48:55;;;;;;;8.97;5.80;;;8.20;61.70;;;;;;5050492;28;20457;-47
2021/04/25 05:51:22;;;;;;;6.83;4.80;;;8.30;61.70;;;;;;5058386;28;20447;-46
2021/04/25 05:53:48;;;;;;;6.87;5.50;;;8.30;61.60;;;;;;5053437;28;20942;-46
2021/04/25 05:56:15;;;;;;;8.53;4.80;;;8.30;61.50;;;;;;5053574;28;20537;-48
2021/04/25 05:58:41;;;;;;;7.33;4.37;;;8.50;61.80;;;;;;5046845;28;20455;-47
2021/04/25 06:01:08;;;;;;;9.80;4.10;;;8.50;61.30;;;;;;5047380;28;20550;-47
2021/04/25 06:03:34;;;;;;;9.73;3.70;;;8.60;60.80;;;;;;5045348;28;21069;-47
2021/04/25 06:06:00;;;;;;;7.90;3.80;;;8.60;60.10;;;;;;5049805;28;20998;-47
2021/04/25 06:08:27;;;;;;;7.27;3.83;;;8.70;59.50;;;;;;5055144;28;20449;-47
2021/04/25 06:10:53;;;;;;;6.30;3.40;;;8.80;58.40;;;;;;5052994;28;20499;-47
2021/04/25 06:13:19;;;;;;;6.97;3.97;;;8.80;58.50;;;;;;5053004;28;20463;-47
2021/04/25 06:15:46;;;;;;;7.33;3.50;;;8.90;57.90;;;;;;5049568;28;20477;-47
2021/04/25 06:18:12;;;;;;;6.90;3.87;;;9.00;58.10;;;;;;5052521;28;20457;-47
2021/04/25 06:20:38;;;;;;;7.20;3.53;;;9.10;58.40;;;;;;5054056;28;20823;-47
2021/04/25 06:23:05;;;;;;;7.70;4.13;;;9.20;57.30;;;;;;5044339;28;20483;-47
2021/04/25 06:25:31;;;;;;;8.60;3.30;;;9.30;56.50;;;;;;5044694;28;20576;-47
2021/04/25 06:27:58;;;;;;;10.50;4.10;;;9.40;56.60;;;;;;5056047;28;20486;-47
2021/04/25 06:30:24;;;;;;;8.90;3.53;;;9.50;56.40;;;;;;5050267;28;20578;-47
2021/04/25 06:32:50;;;;;;;5.17;3.77;;;9.60;56.50;;;;;;5048150;28;20458;-47
2021/04/25 06:35:17;;;;;;;6.53;3.43;;;9.70;56.70;;;;;;5054224;28;20490;-47
2021/04/25 06:37:46;;;;;;;3.40;2.30;;;9.80;56.00;;;;;;5053258;28;20532;-46
2021/04/25 06:40:14;;;;;;;7.43;3.40;;;10.00;55.20;;;;;;5069832;28;20533;-47
2021/04/25 06:42:41;;;;;;;4.40;2.90;;;10.00;54.70;;;;;;5046227;28;20546;-47
2021/04/25 06:45:16;;;;;;;6.03;2.80;;;10.20;54.20;;;;;;5049344;28;20489;-47
2021/04/25 06:47:43;;;;;;;7.23;3.03;;;10.20;53.40;;;;;;5048883;28;20549;-46
2021/04/25 06:50:12;;;;;;;7.10;2.80;;;10.40;52.50;;;;;;5047464;28;20451;-47
2021/04/25 06:52:39;;;;;;;4.07;2.83;;;10.50;52.60;;;;;;5049126;28;20547;-47
2021/04/25 06:55:07;;;;;;;5.33;3.30;;;10.70;52.80;;;;;;5047514;28;20499;-48
2021/04/25 06:57:34;;;;;;;5.03;2.87;;;10.80;52.80;;;;;;5044049;28;21139;-47
2021/04/25 07:00:00;;;;;;;4.40;2.80;;;10.90;52.70;;;;;;5041747;28;20458;-47
2021/04/25 07:02:27;;;;;;;5.30;3.40;;;11.10;52.30;;;;;;5045198;28;20466;-48
2021/04/25 07:04:56;;;;;;;9.43;3.40;;;11.20;52.10;;;;;;5048455;28;20490;-47
2021/04/25 07:07:22;;;;;;;4.10;2.70;;;11.30;51.70;;;;;;5043349;28;20458;-47
2021/04/25 07:09:49;;;;;;;5.47;2.57;;;11.40;51.20;;;;;;5049649;28;20485;-47
2021/04/25 07:12:15;;;;;;;11.70;3.50;;;11.50;50.50;;;;;;5050229;28;20794;-47
2021/04/25 07:14:41;;;;;;;4.80;2.97;;;11.60;50.20;;;;;;5051276;28;20961;-47
2021/04/25 07:17:08;;;;;;;8.83;3.93;;;11.70;49.50;;;;;;5052646;28;20494;-47
2021/04/25 07:19:34;;;;;;;6.53;2.47;;;11.80;49.10;;;;;;5049840;28;20969;-47
2021/04/25 07:22:01;;;;;;;4.07;2.90;;;12.00;49.60;;;;;;5052176;28;20460;-47
2021/04/25 07:24:27;;;;;;;4.80;2.40;;;12.10;49.60;;;;;;5051322;28;20549;-48
2021/04/25 07:26:54;;;;;;;6.43;2.80;;;12.30;49.20;;;;;;5051310;28;20497;-47
2021/04/25 07:29:20;;;;;;;4.87;2.70;;;12.50;49.00;;;;;;5047577;28;20543;-47
2021/04/25 07:31:49;;;;;;;3.60;2.70;;;12.60;48.80;;;;;;5041051;28;20521;-47
2021/04/25 07:34:15;;;;;;;5.83;3.10;;;12.70;48.70;;;;;;5049239;28;20459;-47
2021/04/25 07:36:42;;;;;;;7.30;2.80;;;12.90;48.00;;;;;;5050335;28;21023;-47
2021/04/25 07:39:08;;;;;;;5.10;3.37;;;12.90;47.80;;;;;;5051431;28;20458;-47
2021/04/25 07:41:34;;;;;;;3.60;2.83;;;13.10;47.90;;;;;;5048607;28;20795;-47
2021/04/25 07:44:01;;;;;;;4.50;3.07;;;13.20;47.70;;;;;;5048668;28;20590;-47
2021/04/25 07:46:27;;;;;;;7.13;3.40;;;13.30;48.30;;;;;;5045754;28;20486;-47
2021/04/25 07:48:53;;;;;;;6.23;3.27;;;13.50;47.90;;;;;;5047844;28;20536;-45
2021/04/25 07:51:20;;;;;;;8.57;3.70;;;13.60;47.20;;;;;;5056827;28;20464;-46
2021/04/25 07:53:50;;;;;;;4.30;3.20;;;13.80;46.90;;;;;;5052501;28;20466;-47
2021/04/25 07:56:18;;;;;;;3.30;3.00;;;13.90;46.10;;;;;;5050500;28;20488;-45
2021/04/25 07:58:44;;;;;;;5.70;2.90;;;14.00;46.30;;;;;;5049094;28;20466;-47
2021/04/25 08:01:11;;;;;;;4.10;2.80;;;14.10;46.50;;;;;;5054576;28;20458;-47
2021/04/25 08:03:37;;;;;;;5.30;3.40;;;14.30;45.60;;;;;;5055068;28;20469;-48
2021/04/25 08:06:05;;;;;;;6.53;3.13;;;14.30;45.20;;;;;;5053712;28;20895;-47
2021/04/25 08:08:32;;;;;;;9.40;3.17;;;14.40;45.30;;;;;;5056273;28;20457;-47
2021/04/25 08:10:58;;;;;;;4.30;2.70;;;14.50;45.10;;;;;;5055550;28;20493;-47
2021/04/25 08:13:27;;;;;;;3.80;3.13;;;14.70;44.90;;;;;;5046726;28;20466;-47
2021/04/25 08:15:55;;;;;;;7.23;2.77;;;14.90;45.10;;;;;;5058569;28;20485;-47
2021/04/25 08:18:22;;;;;;;5.17;2.70;;;15.00;44.90;;;;;;5053059;28;20519;-48
2021/04/25 08:20:48;;;;;;;4.23;2.33;;;15.10;44.70;;;;;;5054996;28;20462;-47
2021/04/25 08:23:14;;;;;;;6.27;3.57;;;15.30;43.80;;;;;;5056647;28;20963;-47
2021/04/25 08:25:41;;;;;;;9.87;4.03;;;15.40;43.10;;;;;;5057256;28;20482;-47
2021/04/25 08:28:07;;;;;;;6.77;3.00;;;15.60;43.40;;;;;;5051866;28;20518;-47
2021/04/25 08:30:35;;;;;;;5.07;2.80;;;15.80;43.40;;;;;;5052014;28;20793;-47
2021/04/25 08:33:02;;;;;;;5.73;3.50;;;15.90;42.60;;;;;;5053867;28;20447;-46
2021/04/25 08:35:31;;;;;;;7.80;3.07;;;16.00;42.20;;;;;;5055207;28;20459;-46
2021/04/25 08:37:57;;;;;;;5.10;3.10;;;16.20;42.60;;;;;;5053348;28;20538;-47
2021/04/25 08:40:24;;;;;;;6.77;3.10;;;16.40;41.90;;;;;;5055041;28;20450;-47
2021/04/25 08:42:50;;;;;;;6.83;3.17;;;16.60;41.10;;;;;;5054109;28;20545;-46
2021/04/25 08:45:16;;;;;;;5.67;3.27;;;16.80;40.60;;;;;;5054690;28;20455;-47
2021/04/25 08:47:54;;;;;;;9.47;3.63;;;17.10;40.80;;;;;;5052946;28;20443;-45
2021/04/25 08:50:22;;;;;;;7.40;3.83;;;17.30;40.50;;;;;;5055579;28;20440;-47
2021/04/25 08:52:48;;;;;;;3.87;3.00;;;17.40;38.90;;;;;;5048157;28;20489;-47
2021/04/25 08:55:15;;;;;;;5.57;3.00;;;17.60;38.60;;;;;;5055424;28;20442;-47
2021/04/25 08:57:42;;;;;;;6.70;3.77;;;17.80;38.80;;;;;;5033257;28;20545;-47
2021/04/25 09:00:09;;;;;;;4.80;3.50;;;18.10;38.30;;;;;;5056885;28;20538;-47
2021/04/25 09:02:36;;;;;;;3.80;3.30;;;18.40;38.00;;;;;;5053898;28;20521;-47
2021/04/25 09:05:03;;;;;;;5.67;3.70;;;18.70;37.90;;;;;;5053040;28;20959;-47
2021/04/25 09:07:30;;;;;;;4.13;3.40;;;19.00;37.10;;;;;;5057360;28;20520;-47
2021/04/25 09:10:00;;;;;;;6.83;3.60;;;19.40;36.20;;;;;;5046880;28;20485;-46
2021/04/25 09:12:39;;;;;;;5.57;3.57;;;19.70;35.60;;;;;;5053958;28;20490;-45
2021/04/25 09:15:31;;;;;;;4.63;3.10;;;20.00;35.10;;;;;;5032920;28;20975;-46
2021/04/25 09:18:02;;;;;;;4.63;3.20;;;20.20;34.80;;;;;;5055997;28;20451;-46
2021/04/25 09:20:34;;;;;;;4.50;3.47;;;20.50;34.60;;;;;;5054772;28;20541;-46
2021/04/25 09:23:02;;;;;;;6.30;3.63;;;20.80;34.40;;;;;;5052060;28;20951;-45
2021/04/25 09:25:28;;;;;;;7.27;3.70;;;21.10;33.70;;;;;;5056009;28;21055;-51
2021/04/25 09:28:13;;;;;;;3.50;3.20;;;21.30;33.40;;;;;;5053935;28;20537;-47
2021/04/25 09:30:39;;;;;;;4.80;3.30;;;21.70;32.50;;;;;;5057528;28;20438;-48
2021/04/25 09:33:11;;;;;;;3.80;3.37;;;22.00;32.40;;;;;;5060504;28;20455;-47
2021/04/25 09:35:39;;;;;;;5.07;3.27;;;22.40;32.40;;;;;;5054428;28;20882;-47
2021/04/25 09:38:12;;;;;;;5.00;3.50;;;22.80;31.50;;;;;;5048777;28;20455;-57
2021/04/25 09:40:50;;;;;;;4.43;3.20;;;23.20;30.90;;;;;;5056625;28;20522;-47
2021/04/25 09:43:19;;;;;;;5.43;3.40;;;23.60;30.40;;;;;;5048067;28;20550;-47
2021/04/25 09:45:57;;;;;;;6.70;3.27;;;23.90;30.10;;;;;;5050851;28;20994;-48
2021/04/25 09:48:27;;;;;;;6.40;3.00;;;24.10;29.90;;;;;;5050662;28;20449;-48
2021/04/25 09:51:09;;;;;;;7.03;3.33;;;24.40;29.50;;;;;;5054037;28;21043;-49
2021/04/25 09:53:37;;;;;;;4.17;3.63;;;24.60;29.00;;;;;;5051438;28;20535;-49
2021/04/25 09:56:05;;;;;;;6.27;3.30;;;24.80;28.30;;;;;;5070534;28;20450;-49
2021/04/25 09:58:32;;;;;;;3.27;2.77;;;25.00;27.90;;;;;;5046346;28;21061;-49
2021/04/25 10:00:58;;;;;;;6.70;3.13;;;25.20;28.10;;;;;;5046274;28;20459;-49
2021/04/25 10:03:35;;;;;;;7.50;4.03;;;25.40;27.50;;;;;;5051659;28;20806;-48
2021/04/25 10:06:06;;;;;;;4.03;3.40;;;25.60;27.10;;;;;;5044774;28;20481;-49
2021/04/25 10:08:36;;;;;;;6.80;3.60;;;25.80;26.80;;;;;;5058425;28;20437;-49
2021/04/25 10:11:05;;;;;;;6.77;3.93;;;25.90;26.70;;;;;;5047752;28;20457;-49
2021/04/25 10:13:35;;;;;;;4.50;3.23;;;26.00;26.90;;;;;;5047557;28;20453;-49
2021/04/25 10:16:01;;;;;;;4.80;3.33;;;26.00;26.50;;;;;;5053061;28;20477;-49
2021/04/25 10:18:28;;;;;;;5.13;3.50;;;26.00;26.20;;;;;;5048393;28;20476;-49
2021/04/25 10:20:56;;;;;;;5.50;3.27;;;26.10;26.50;;;;;;5067929;28;20450;-49
2021/04/25 10:23:24;;;;;;;5.67;3.30;;;26.00;26.20;;;;;;5061729;28;20879;-49
2021/04/25 10:25:50;;;;;;;6.03;3.30;;;25.90;26.60;;;;;;5048865;28;20834;-49
2021/04/25 10:28:25;;;;;;;6.13;3.60;;;25.70;27.30;;;;;;5054879;28;20964;-49
2021/04/25 10:30:57;;;;;;;8.33;4.10;;;25.30;27.50;;;;;;5051097;28;20449;-49
2021/04/25 10:33:23;;;;;;;6.80;3.63;;;25.10;28.00;;;;;;5055435;28;20557;-49
2021/04/25 10:35:55;;;;;;;5.40;3.53;;;25.00;27.80;;;;;;5052801;28;20549;-49
2021/04/25 10:38:38;;;;;;;5.23;3.70;;;24.80;28.00;;;;;;5056149;28;20492;-49
2021/04/25 10:41:28;;;;;;;4.47;3.30;;;24.60;27.80;;;;;;5051135;28;20466;-49
2021/04/25 10:44:05;;;;;;;7.00;3.57;;;24.40;28.10;;;;;;5048414;28;20985;-49
2021/04/25 10:46:55;;;;;;;5.77;3.20;;;24.20;28.80;;;;;;5056582;28;20484;-49
2021/04/25 10:49:36;;;;;;;8.43;3.10;;;24.10;29.40;;;;;;5046915;28;20454;-49
2021/04/25 10:52:21;;;;;;;7.97;3.60;;;23.90;29.30;;;;;;5030662;28;20446;-49
2021/04/25 10:55:11;;;;;;;8.33;4.17;;;23.70;29.00;;;;;;5065139;28;20458;-49
2021/04/25 10:58:07;;;;;;;5.30;3.60;;;23.50;29.40;;;;;;5047913;28;20953;-46
2021/04/25 11:00:34;;;;;;;5.07;3.50;;;23.10;30.20;;;;;;5049414;28;20456;-46
2021/04/25 11:03:11;;;;;;;9.53;3.40;;;23.00;31.00;;;;;;5047739;28;20496;-46
2021/04/25 11:05:43;;;;;;;4.43;3.83;;;22.80;30.90;;;;;;5045516;28;21082;-46
2021/04/25 11:08:16;;;;;;;6.43;4.13;;;22.60;32.00;;;;;;5047397;28;20462;-45
2021/04/25 11:10:59;;;;;;;6.63;3.37;;;22.50;32.00;;;;;;5047925;28;20454;-47
2021/04/25 11:13:45;;;;;;;8.93;3.67;;;22.40;31.60;;;;;;5051350;28;20453;-47
2021/04/25 11:16:16;;;;;;;4.30;3.23;;;22.30;32.20;;;;;;5048338;28;20458;-47
2021/04/25 11:18:49;;;;;;;8.23;3.43;;;22.20;32.00;;;;;;5045808;28;20489;-47
2021/04/25 11:21:30;;;;;;;8.20;3.63;;;22.10;31.80;;;;;;5051851;28;20450;-47
2021/04/25 11:24:04;;;;;;;5.53;3.97;;;22.00;32.10;;;;;;5051841;28;20495;-47
2021/04/25 11:29:39;;;;;;;6.57;4.03;;;21.80;32.50;;;;;;5054610;28;20445;-47
2021/04/25 11:32:07;;;;;;;6.77;4.07;;;21.70;32.10;;;;;;5028712;28;20461;-47
2021/04/25 11:34:34;;;;;;;7.30;4.00;;;21.70;33.10;;;;;;5051239;28;20450;-47
2021/04/25 11:37:19;;;;;;;7.30;3.77;;;21.60;33.10;;;;;;5054619;28;20541;-47
2021/04/25 11:40:00;;;;;;;5.87;4.70;;;21.50;33.60;;;;;;5055025;28;20528;-47
2021/04/25 11:42:47;;;;;;;6.60;4.83;;;21.40;32.50;;;;;;5067277;28;20459;-47
2021/04/25 11:45:20;;;;;;;6.10;4.00;;;21.20;32.90;;;;;;5058406;28;20438;-47
2021/04/25 11:47:50;;;;;;;9.20;4.80;;;21.00;33.10;;;;;;5053185;28;20812;-47
2021/04/25 11:50:18;;;;;;;9.60;4.37;;;20.70;34.20;;;;;;5054539;28;20441;-47
2021/04/25 11:52:45;;;;;;;6.27;5.07;;;20.60;34.60;;;;;;5052826;28;20450;-47
2021/04/25 11:55:15;;;;;;;6.23;3.60;;;20.60;34.20;;;;;;5063152;28;20480;-47
2021/04/25 11:57:48;;;;;;;3.90;3.17;;;20.60;34.50;;;;;;5053106;28;20458;-47
2021/04/25 12:00:36;;;;;;;5.00;4.03;;;20.60;34.30;;;;;;5053923;28;20442;-48
2021/04/25 12:03:04;;;;;;;8.73;3.90;;;20.50;33.80;;;;;;5055920;28;20904;-47
2021/04/25 12:05:38;;;;;;;6.17;4.37;;;20.50;34.10;;;;;;5055170;28;20536;-47
2021/04/25 12:08:14;;;;;;;9.10;3.90;;;20.30;34.40;;;;;;5059124;28;20448;-48
2021/04/25 12:10:41;;;;;;;8.50;3.97;;;20.20;35.00;;;;;;5056567;28;20469;-47
2021/04/25 12:13:12;;;;;;;7.30;4.37;;;20.20;35.90;;;;;;5052770;28;20464;-47
2021/04/25 12:16:05;;;;;;;5.30;3.23;;;20.20;36.00;;;;;;5059460;28;20469;-47
2021/04/25 12:18:37;;;;;;;7.07;3.07;;;20.20;35.20;;;;;;5054452;28;20458;-46
2021/04/25 12:21:05;;;;;;;4.97;3.60;;;20.30;34.90;;;;;;5055056;28;20466;-47
2021/04/25 12:23:37;;;;;;;4.47;3.57;;;20.40;34.20;;;;;;5056942;28;20860;-47
2021/04/25 12:26:08;;;;;;;6.80;3.60;;;20.50;34.90;;;;;;5053955;28;20493;-47
2021/04/25 12:28:43;;;;;;;7.77;3.60;;;20.60;34.60;;;;;;5057211;28;20450;-47
2021/04/25 12:31:15;;;;;;;7.80;3.80;;;20.70;34.00;;;;;;5052605;28;20669;-47
2021/04/25 12:33:47;;;;;;;5.50;3.70;;;20.80;33.80;;;;;;5055517;28;20464;-47
2021/04/25 12:36:19;;;;;;;6.23;4.20;;;20.80;34.60;;;;;;5053071;28;20457;-47
2021/04/25 12:39:15;;;;;;;7.43;4.00;;;20.90;34.20;;;;;;5066263;28;20818;-47
2021/04/25 12:41:46;;;;;;;7.70;4.17;;;20.90;34.00;;;;;;5042005;28;20833;-47
2021/04/25 12:44:15;;;;;;;6.67;4.17;;;20.90;34.10;;;;;;5057083;28;20450;-47
2021/04/25 12:46:53;;;;;;;11.10;4.20;;;20.90;34.10;;;;;;5062735;28;20483;-47
2021/04/25 12:49:20;;;;;;;4.83;3.13;;;20.90;33.70;;;;;;5065547;28;20465;-47
2021/04/25 12:51:48;;;;;;;9.03;4.97;;;20.90;34.20;;;;;;5049993;28;20799;-47
2021/04/25 12:54:19;;;;;;;6.57;4.63;;;20.90;34.30;;;;;;5053209;28;20534;-47
2021/04/25 12:56:49;;;;;;;5.57;3.33;;;20.90;33.90;;;;;;5051984;28;20898;-47
2021/04/25 12:59:35;;;;;;;3.93;3.30;;;20.90;34.50;;;;;;5054474;28;20537;-47
2021/04/25 13:02:01;;;;;;;4.77;3.70;;;20.80;33.70;;;;;;5053131;28;20840;-46